Time;durP1;ratioP1;P1;durP2;ratioP2;P2;SDS_P1;SDS_P2;PMS_P1;PMS_P2;Temp;Humidity;BMP_temperature;BMP_pressure;BME280_temperature;BME280_humidity;BME280_pressure;Samples;Min_cycle;Max_cycle;Signal;HPM_P1;HPM_P2
2023/03/14 00:00:00;;;;;;;1999.90;999.90;;;7.90;99.90;;;;;;5107917;27;20040;-76
2023/03/14 00:02:27;;;;;;;1999.90;999.90;;;8.00;99.90;;;;;;5092053;28;20497;-76
2023/03/14 00:04:55;;;;;;;331.50;202.80;;;8.00;99.90;;;;;;5110279;28;20036;-75
2023/03/14 00:07:21;;;;;;;826.40;730.72;;;8.10;99.90;;;;;;5111255;28;20128;-75
2023/03/14 00:09:46;;;;;;;704.88;470.13;;;8.00;99.90;;;;;;5110951;28;20115;-75
2023/03/14 00:12:14;;;;;;;512.47;357.23;;;8.10;99.90;;;;;;5111417;28;20059;-76
2023/03/14 00:14:42;;;;;;;1999.90;999.90;;;7.80;99.90;;;;;;5090268;28;20044;-76
2023/03/14 00:17:11;;;;;;;765.17;592.83;;;7.80;99.90;;;;;;5093430;28;20046;-76
2023/03/14 00:19:36;;;;;;;1999.90;999.90;;;7.70;99.90;;;;;;5110295;28;20042;-76
2023/03/14 00:22:02;;;;;;;840.95;500.75;;;7.60;99.90;;;;;;5093070;28;20031;-76
2023/03/14 00:24:28;;;;;;;1999.90;999.90;;;7.70;99.90;;;;;;5110367;28;20031;-76
2023/03/14 00:26:53;;;;;;;847.92;588.53;;;7.60;99.90;;;;;;5111093;28;20110;-76
2023/03/14 00:29:19;;;;;;;1999.90;999.90;;;7.60;99.90;;;;;;5111140;28;20373;-75
2023/03/14 00:31:44;;;;;;;938.53;478.20;;;7.60;99.90;;;;;;5110720;28;20097;-75
2023/03/14 00:34:10;;;;;;;1188.20;647.17;;;7.60;99.90;;;;;;5092260;28;20032;-76
2023/03/14 00:36:36;;;;;;;1999.90;999.90;;;7.70;99.90;;;;;;5111044;28;20046;-77
2023/03/14 00:39:01;;;;;;;1999.90;999.90;;;7.60;99.90;;;;;;5109909;28;20071;-76
2023/03/14 00:41:27;;;;;;;1999.90;999.90;;;7.60;99.90;;;;;;5074956;28;20034;-75
2023/03/14 00:43:52;;;;;;;1999.90;999.90;;;7.60;99.90;;;;;;5110002;28;20059;-76
2023/03/14 00:46:18;;;;;;;1538.95;763.25;;;7.60;99.90;;;;;;5092639;28;20507;-75
2023/03/14 00:48:46;;;;;;;1999.90;999.90;;;7.60;99.90;;;;;;5108276;28;20027;-76
2023/03/14 00:51:13;;;;;;;1999.90;999.90;;;7.70;99.90;;;;;;5091874;28;20101;-75
2023/03/14 00:53:40;;;;;;;1999.90;999.90;;;7.80;99.90;;;;;;5091827;28;20031;-77
2023/03/14 00:56:08;;;;;;;1999.90;999.90;;;7.70;99.90;;;;;;5091721;28;20020;-75
2023/03/14 00:58:34;;;;;;;1999.90;999.90;;;7.80;99.90;;;;;;5108741;28;20054;-75
2023/03/14 01:01:08;;;;;;;1999.90;999.90;;;7.70;99.90;;;;;;5089389;28;20055;-76
2023/03/14 01:03:34;;;;;;;1999.90;999.90;;;7.70;99.90;;;;;;5109073;28;20055;-76
2023/03/14 01:06:27;;;;;;;1308.90;685.55;;;7.60;99.90;;;;;;5108899;28;20074;-76
2023/03/14 01:08:54;;;;;;;968.10;552.92;;;7.60;99.90;;;;;;5107691;28;20468;-76
2023/03/14 01:11:26;;;;;;;823.28;491.92;;;7.50;99.90;;;;;;5109667;28;20023;-74
2023/03/14 01:13:53;;;;;;;1999.90;999.90;;;7.50;99.90;;;;;;5091906;28;20393;-76
2023/03/14 01:16:20;;;;;;;1136.07;568.38;;;7.50;99.90;;;;;;5091902;28;20101;-75
2023/03/14 01:18:47;;;;;;;1999.90;999.90;;;7.50;99.90;;;;;;5112523;27;20046;-75
2023/03/14 01:21:18;;;;;;;427.77;164.07;;;7.50;99.90;;;;;;5092253;28;20041;-76
2023/03/14 01:23:45;;;;;;;1232.10;657.40;;;7.50;99.90;;;;;;5107981;28;20027;-75
2023/03/14 01:26:18;;;;;;;1999.90;999.90;;;7.50;99.90;;;;;;5109360;27;20040;-76
2023/03/14 01:28:45;;;;;;;1999.90;999.90;;;7.40;99.90;;;;;;5108075;28;20023;-75
2023/03/14 01:31:11;;;;;;;1999.90;999.90;;;7.40;99.90;;;;;;5109494;28;20019;-76
2023/03/14 01:33:37;;;;;;;1999.90;999.90;;;7.40;99.90;;;;;;5109584;28;20111;-76
2023/03/14 01:36:03;;;;;;;1999.90;999.90;;;7.40;99.90;;;;;;5108912;28;20030;-76
2023/03/14 01:38:31;;;;;;;1108.45;687.22;;;7.40;99.90;;;;;;5109853;28;20036;-75
2023/03/14 01:40:57;;;;;;;1999.90;999.90;;;7.50;99.90;;;;;;5108176;28;20039;-74
2023/03/14 01:43:25;;;;;;;1999.90;999.90;;;7.50;99.90;;;;;;5109208;28;20118;-76
2023/03/14 01:46:18;;;;;;;1999.90;999.90;;;7.50;99.90;;;;;;5108868;28;20035;-75
2023/03/14 01:48:50;;;;;;;1999.90;999.90;;;7.50;99.90;;;;;;5107316;28;20024;-77
2023/03/14 01:51:23;;;;;;;1637.22;823.67;;;7.40;99.90;;;;;;5109035;28;20020;-76
2023/03/14 01:53:50;;;;;;;1999.90;999.90;;;7.40;99.90;;;;;;5089329;28;20028;-75
2023/03/14 01:56:19;;;;;;;1999.90;999.90;;;7.40;99.90;;;;;;5107399;28;20413;-75
2023/03/14 01:58:48;;;;;;;1999.90;999.90;;;7.40;99.90;;;;;;5109850;28;20061;-75
2023/03/14 02:01:19;;;;;;;1999.90;999.90;;;7.40;99.90;;;;;;5108625;28;20031;-75
2023/03/14 02:03:56;;;;;;;1999.90;999.90;;;7.40;99.90;;;;;;5107016;28;20040;-75
2023/03/14 02:06:28;;;;;;;1573.60;798.30;;;7.40;99.90;;;;;;5108009;28;20028;-75
2023/03/14 02:08:55;;;;;;;1999.90;999.90;;;7.50;99.90;;;;;;5090478;28;20468;-76
2023/03/14 02:11:21;;;;;;;1612.35;819.97;;;7.50;99.90;;;;;;5090656;28;20019;-75
2023/03/14 02:13:48;;;;;;;1999.90;999.90;;;7.50;99.90;;;;;;5089060;28;20080;-76
2023/03/14 02:16:14;;;;;;;1999.90;999.90;;;7.40;99.90;;;;;;5106288;28;20063;-76
2023/03/14 02:18:43;;;;;;;1037.80;516.60;;;7.40;99.90;;;;;;5108480;28;20047;-76
2023/03/14 02:21:32;;;;;;;1999.90;999.90;;;7.40;99.90;;;;;;5090999;28;20036;-75
2023/03/14 02:24:08;;;;;;;1999.90;999.90;;;7.40;99.90;;;;;;5108392;28;20024;-75
2023/03/14 02:27:02;;;;;;;1630.50;827.90;;;7.40;99.90;;;;;;5106822;28;20482;-76
2023/03/14 02:29:29;;;;;;;1999.90;999.90;;;7.40;99.90;;;;;;5106576;28;20752;-76
2023/03/14 02:31:55;;;;;;;780.30;480.33;;;7.40;99.90;;;;;;5109406;28;20028;-75
2023/03/14 02:34:20;;;;;;;1999.90;999.90;;;7.40;99.90;;;;;;5107595;28;20023;-76
2023/03/14 02:36:47;;;;;;;1413.15;799.63;;;7.30;99.90;;;;;;5090825;28;20482;-74
2023/03/14 02:39:23;;;;;;;891.20;465.52;;;7.30;99.90;;;;;;5106757;28;20032;-76
2023/03/14 02:41:49;;;;;;;431.08;383.77;;;7.40;99.90;;;;;;5108673;28;20452;-75
2023/03/14 02:44:14;;;;;;;1999.90;999.90;;;7.40;99.90;;;;;;5108666;28;20106;-75
2023/03/14 02:46:40;;;;;;;1999.90;999.90;;;7.30;99.90;;;;;;5090784;28;20024;-74
2023/03/14 02:49:12;;;;;;;771.58;457.42;;;7.30;99.90;;;;;;5090750;28;20496;-75
2023/03/14 02:51:39;;;;;;;1609.70;796.08;;;7.30;99.90;;;;;;5107916;28;20040;-74
2023/03/14 02:54:05;;;;;;;500.98;289.58;;;7.40;99.90;;;;;;5107089;28;20454;-74
2023/03/14 02:56:31;;;;;;;1999.90;999.90;;;7.30;99.90;;;;;;5107325;28;20031;-74
2023/03/14 02:58:57;;;;;;;1999.90;999.90;;;7.30;99.90;;;;;;5088904;28;20739;-75
2023/03/14 03:01:23;;;;;;;1999.90;999.90;;;7.30;99.90;;;;;;5107945;28;20092;-74
2023/03/14 03:03:49;;;;;;;1999.90;999.90;;;7.30;99.90;;;;;;5090553;28;20123;-75
2023/03/14 03:06:15;;;;;;;1278.03;729.88;;;7.30;99.90;;;;;;5089966;28;20111;-75
2023/03/14 03:08:41;;;;;;;1999.90;999.90;;;7.30;99.90;;;;;;5109029;28;20028;-75
2023/03/14 03:11:07;;;;;;;781.35;423.05;;;7.30;99.90;;;;;;5107217;28;20032;-75
2023/03/14 03:13:32;;;;;;;972.00;573.28;;;7.20;99.90;;;;;;5072682;28;20027;-76
2023/03/14 03:15:58;;;;;;;1082.22;642.13;;;7.20;99.90;;;;;;5089929;28;20419;-75
2023/03/14 03:18:24;;;;;;;1999.90;999.90;;;7.20;99.90;;;;;;5111961;28;20512;-75
2023/03/14 03:20:49;;;;;;;1999.90;999.90;;;7.20;99.90;;;;;;5111208;28;20542;-75
2023/03/14 03:23:15;;;;;;;1999.90;999.90;;;7.20;99.90;;;;;;5111877;28;20039;-75
2023/03/14 03:25:41;;;;;;;1999.90;999.90;;;7.20;99.90;;;;;;5112441;28;20054;-76
2023/03/14 03:28:07;;;;;;;877.65;435.48;;;7.20;99.90;;;;;;5112008;28;20024;-76
2023/03/14 03:30:40;;;;;;;1999.90;999.90;;;7.20;99.90;;;;;;5094237;28;20033;-76
2023/03/14 03:33:06;;;;;;;1654.72;856.80;;;7.20;99.90;;;;;;5111218;28;20027;-75
2023/03/14 03:35:32;;;;;;;1999.90;999.90;;;7.20;99.90;;;;;;5095845;28;20031;-75
2023/03/14 03:37:58;;;;;;;1999.90;999.90;;;7.20;99.90;;;;;;5093835;28;20100;-75
2023/03/14 03:40:24;;;;;;;953.53;694.17;;;7.20;99.90;;;;;;5093492;28;20031;-75
2023/03/14 03:42:49;;;;;;;571.10;408.23;;;7.20;99.90;;;;;;5111373;28;20028;-75
2023/03/14 03:45:15;;;;;;;784.03;610.22;;;7.20;99.90;;;;;;5093968;28;20027;-76
2023/03/14 03:47:41;;;;;;;1999.90;999.90;;;7.10;99.90;;;;;;5112242;28;20080;-76
2023/03/14 03:50:07;;;;;;;1257.90;715.33;;;7.10;99.90;;;;;;5111709;28;20028;-75
2023/03/14 03:52:32;;;;;;;939.70;732.90;;;7.10;99.90;;;;;;5111259;28;20059;-76
2023/03/14 03:54:58;;;;;;;1190.75;819.53;;;7.00;99.90;;;;;;5111029;28;20055;-75
2023/03/14 03:57:23;;;;;;;1999.90;999.90;;;7.10;99.90;;;;;;5093721;28;20481;-75
2023/03/14 03:59:49;;;;;;;1999.90;999.90;;;7.10;99.90;;;;;;5109188;28;20088;-75
2023/03/14 04:02:15;;;;;;;700.95;500.77;;;7.10;99.90;;;;;;5111343;28;20084;-76
2023/03/14 04:04:40;;;;;;;983.53;682.90;;;7.10;99.90;;;;;;5111278;28;20034;-75
2023/03/14 04:07:06;;;;;;;724.58;586.10;;;7.10;99.90;;;;;;5111481;28;20031;-75
2023/03/14 04:09:32;;;;;;;1371.55;832.55;;;7.00;99.90;;;;;;5111610;28;20023;-75
2023/03/14 04:11:57;;;;;;;810.88;514.58;;;7.00;99.90;;;;;;5109951;28;20081;-75
2023/03/14 04:14:23;;;;;;;1603.75;832.25;;;7.00;99.90;;;;;;5112011;28;20027;-75
2023/03/14 04:16:49;;;;;;;1999.90;999.90;;;7.00;99.90;;;;;;5111128;28;20031;-74
2023/03/14 04:19:15;;;;;;;504.27;415.23;;;7.00;99.90;;;;;;5111163;28;20409;-75
2023/03/14 04:21:44;;;;;;;741.05;654.25;;;6.90;99.90;;;;;;5111213;28;20055;-75
2023/03/14 04:24:10;;;;;;;765.53;691.45;;;6.90;99.90;;;;;;5110979;28;20169;-75
2023/03/14 04:26:36;;;;;;;691.15;602.45;;;6.90;99.90;;;;;;5110807;28;20039;-75
2023/03/14 04:29:02;;;;;;;1089.50;608.72;;;6.90;99.90;;;;;;5109159;28;20031;-75
2023/03/14 04:31:28;;;;;;;1028.90;944.28;;;6.90;99.90;;;;;;5092852;28;20027;-76
2023/03/14 04:33:53;;;;;;;738.92;671.78;;;6.80;99.90;;;;;;5110470;28;20400;-75
2023/03/14 04:36:19;;;;;;;1263.75;740.15;;;6.90;99.90;;;;;;5092362;28;20162;-75
2023/03/14 04:38:45;;;;;;;1999.90;999.90;;;6.80;99.90;;;;;;5110464;28;20019;-76
2023/03/14 04:41:10;;;;;;;1999.90;999.90;;;6.80;99.90;;;;;;5109764;28;20089;-76
2023/03/14 04:43:36;;;;;;;1999.90;999.90;;;6.90;99.90;;;;;;5109364;28;20043;-75
2023/03/14 04:46:02;;;;;;;947.13;871.65;;;6.80;99.90;;;;;;5110183;28;20042;-75
2023/03/14 04:48:27;;;;;;;776.28;711.08;;;6.80;99.90;;;;;;5109385;28;20040;-76
2023/03/14 04:50:53;;;;;;;706.67;648.08;;;6.80;99.90;;;;;;5111153;28;20054;-76
2023/03/14 04:53:19;;;;;;;763.55;702.17;;;6.70;99.90;;;;;;5109892;28;20446;-76
2023/03/14 04:55:53;;;;;;;752.95;676.95;;;6.70;99.90;;;;;;5109372;28;20020;-75
2023/03/14 04:58:19;;;;;;;983.63;552.20;;;6.70;99.90;;;;;;5093364;28;20035;-75
2023/03/14 05:00:45;;;;;;;1063.15;569.13;;;6.70;99.90;;;;;;5093132;28;20020;-75
2023/03/14 05:03:11;;;;;;;1190.20;656.78;;;6.60;99.90;;;;;;5109931;28;20047;-76
2023/03/14 05:05:36;;;;;;;1148.32;803.75;;;6.60;99.90;;;;;;5093200;28;20520;-75
2023/03/14 05:08:02;;;;;;;881.60;793.05;;;6.60;99.90;;;;;;5091639;28;20076;-76
2023/03/14 05:10:28;;;;;;;850.08;696.35;;;6.50;99.90;;;;;;5110937;28;20532;-75
2023/03/14 05:12:53;;;;;;;1037.40;954.75;;;6.50;99.90;;;;;;5107946;27;20475;-75
2023/03/14 05:15:19;;;;;;;1999.90;999.90;;;6.60;99.90;;;;;;5088217;28;20055;-76
2023/03/14 05:17:46;;;;;;;815.42;733.28;;;6.40;99.90;;;;;;5090036;28;20084;-76
2023/03/14 05:20:12;;;;;;;1234.32;920.85;;;6.50;99.90;;;;;;5105238;27;20044;-75
2023/03/14 05:22:39;;;;;;;1406.15;862.28;;;6.40;99.90;;;;;;5106553;27;20106;-75
2023/03/14 05:25:05;;;;;;;613.13;545.80;;;6.40;99.90;;;;;;5105740;27;20413;-74
2023/03/14 05:27:30;;;;;;;1606.70;828.17;;;6.30;99.90;;;;;;5113204;27;20028;-75
2023/03/14 05:29:56;;;;;;;829.38;589.17;;;6.30;99.90;;;;;;5109691;27;20031;-74
2023/03/14 05:32:22;;;;;;;827.92;761.40;;;6.30;99.90;;;;;;5113301;27;20027;-75
2023/03/14 05:34:47;;;;;;;668.40;483.35;;;6.30;99.90;;;;;;5109169;28;20468;-74
2023/03/14 05:37:13;;;;;;;813.92;720.22;;;6.30;99.90;;;;;;5105097;28;20071;-74
2023/03/14 05:39:39;;;;;;;1334.38;725.75;;;6.30;99.90;;;;;;5106126;28;20546;-74
2023/03/14 05:42:04;;;;;;;1662.38;897.88;;;6.00;99.90;;;;;;5104478;27;20028;-74
2023/03/14 05:44:30;;;;;;;1656.50;876.00;;;6.10;99.90;;;;;;5085663;28;20388;-74
2023/03/14 05:46:55;;;;;;;1999.90;999.90;;;6.10;99.90;;;;;;5092296;28;20032;-73
2023/03/14 05:49:21;;;;;;;912.17;844.03;;;6.00;99.90;;;;;;5103922;28;20035;-74
2023/03/14 05:51:47;;;;;;;934.17;856.80;;;6.10;99.90;;;;;;5105057;28;20104;-74
2023/03/14 05:54:12;;;;;;;1320.22;796.03;;;6.10;99.90;;;;;;5107658;28;20034;-74
2023/03/14 05:56:38;;;;;;;1167.60;846.30;;;6.10;99.90;;;;;;5091318;28;20442;-74
2023/03/14 05:59:04;;;;;;;771.60;692.10;;;6.10;99.90;;;;;;5089239;28;20538;-74
2023/03/14 06:01:30;;;;;;;1477.20;938.28;;;6.10;99.90;;;;;;5108194;28;20440;-74
2023/03/14 06:03:56;;;;;;;1140.80;825.53;;;6.10;99.90;;;;;;5091480;28;20514;-74
2023/03/14 06:06:21;;;;;;;1334.68;799.88;;;6.00;99.90;;;;;;5091387;28;20114;-74
2023/03/14 06:08:47;;;;;;;813.50;725.70;;;6.00;99.90;;;;;;5109845;28;20147;-74
2023/03/14 06:11:13;;;;;;;1999.90;999.90;;;6.00;99.90;;;;;;5074835;28;20031;-74
2023/03/14 06:13:39;;;;;;;890.00;810.92;;;6.00;99.90;;;;;;5106153;28;20028;-74
2023/03/14 06:16:05;;;;;;;1226.38;918.08;;;6.10;99.90;;;;;;5104727;28;20038;-74
2023/03/14 06:18:31;;;;;;;858.28;793.17;;;6.10;99.90;;;;;;5087988;28;20096;-74
2023/03/14 06:20:57;;;;;;;924.95;841.55;;;6.10;99.90;;;;;;5089321;28;20043;-76
2023/03/14 06:23:23;;;;;;;1040.65;745.13;;;6.10;99.90;;;;;;5100689;28;20032;-75
2023/03/14 06:25:49;;;;;;;742.08;679.47;;;6.10;99.90;;;;;;5084230;28;20051;-76
2023/03/14 06:28:14;;;;;;;911.28;847.55;;;6.20;99.90;;;;;;5088899;28;20027;-75
2023/03/14 06:30:41;;;;;;;870.47;794.90;;;6.10;99.90;;;;;;5106958;28;20028;-75
2023/03/14 06:33:06;;;;;;;1178.97;872.53;;;6.20;99.90;;;;;;5086866;28;20062;-74
2023/03/14 06:35:32;;;;;;;1187.65;877.13;;;6.10;99.90;;;;;;5090534;28;20062;-74
2023/03/14 06:37:58;;;;;;;653.38;509.90;;;6.10;99.90;;;;;;5108199;28;20043;-74
2023/03/14 06:40:23;;;;;;;955.10;874.33;;;6.00;99.90;;;;;;5093176;28;20125;-74
2023/03/14 06:42:49;;;;;;;1265.18;685.45;;;6.20;99.90;;;;;;5104602;28;20034;-74
2023/03/14 06:45:15;;;;;;;1999.90;999.90;;;6.20;99.90;;;;;;5106189;28;20035;-74
2023/03/14 06:47:41;;;;;;;853.85;767.28;;;6.20;99.90;;;;;;5108129;28;20023;-74
2023/03/14 06:50:08;;;;;;;912.65;846.50;;;6.30;99.90;;;;;;5106680;28;20481;-74
2023/03/14 06:52:34;;;;;;;840.58;781.53;;;6.30;99.90;;;;;;5112347;28;20036;-74
2023/03/14 06:54:59;;;;;;;1183.40;876.63;;;6.40;99.90;;;;;;5097310;28;20084;-74
2023/03/14 06:57:25;;;;;;;1137.75;830.42;;;6.40;99.90;;;;;;5097055;28;20107;-74
2023/03/14 06:59:50;;;;;;;1246.68;934.25;;;6.40;99.90;;;;;;5093218;28;20039;-73
2023/03/14 07:02:16;;;;;;;958.30;885.60;;;6.40;99.90;;;;;;5078855;28;20043;-74
2023/03/14 07:04:42;;;;;;;791.53;708.75;;;6.40;99.90;;;;;;5115364;28;20431;-74
2023/03/14 07:07:07;;;;;;;934.83;871.30;;;6.40;99.90;;;;;;5115283;28;20035;-73
2023/03/14 07:09:34;;;;;;;1999.90;999.90;;;6.50;99.90;;;;;;5096310;28;20024;-74
2023/03/14 07:12:00;;;;;;;979.63;635.95;;;6.50;99.90;;;;;;5113701;28;20493;-74
2023/03/14 07:14:26;;;;;;;835.53;748.92;;;6.50;99.90;;;;;;5096750;28;20036;-73
2023/03/14 07:16:51;;;;;;;924.97;854.83;;;6.60;99.90;;;;;;5115298;28;20028;-74
2023/03/14 07:19:17;;;;;;;1266.00;956.20;;;6.70;99.90;;;;;;5114658;28;20027;-73
2023/03/14 07:21:43;;;;;;;977.78;904.83;;;7.00;99.90;;;;;;5115294;28;20023;-74
2023/03/14 07:24:09;;;;;;;1459.32;919.88;;;7.10;99.90;;;;;;5114813;28;20474;-74
2023/03/14 07:26:34;;;;;;;1057.28;972.55;;;7.30;99.90;;;;;;5077435;28;20047;-74
2023/03/14 07:29:02;;;;;;;1090.10;999.13;;;7.40;99.90;;;;;;5095788;28;20482;-74
2023/03/14 07:31:28;;;;;;;853.30;785.95;;;7.50;99.90;;;;;;5078985;28;20036;-74
2023/03/14 07:33:54;;;;;;;996.30;918.88;;;7.60;96.60;;;;;;5058929;28;20039;-73
2023/03/14 07:36:20;;;;;;;889.75;822.15;;;7.70;96.40;;;;;;5096785;28;20077;-74
2023/03/14 07:38:45;;;;;;;1052.88;970.47;;;7.70;95.80;;;;;;5097337;28;20032;-74
2023/03/14 07:41:11;;;;;;;913.83;839.88;;;7.70;96.10;;;;;;5079177;28;20402;-74
2023/03/14 07:43:37;;;;;;;961.10;890.03;;;7.70;94.70;;;;;;5096454;28;20039;-74
2023/03/14 07:46:02;;;;;;;983.15;910.00;;;7.70;94.60;;;;;;5079291;28;20049;-74
2023/03/14 07:48:28;;;;;;;1014.25;936.42;;;7.80;94.60;;;;;;5094526;28;20024;-73
2023/03/14 07:50:55;;;;;;;867.15;791.35;;;7.80;94.20;;;;;;5097824;28;20035;-73
2023/03/14 07:53:21;;;;;;;1033.95;950.70;;;7.90;93.40;;;;;;5078911;28;20031;-74
2023/03/14 07:55:47;;;;;;;1030.00;949.70;;;8.00;93.70;;;;;;5081582;28;20027;-73
2023/03/14 07:58:14;;;;;;;780.20;712.47;;;8.10;93.60;;;;;;5096334;28;20390;-74
2023/03/14 08:00:39;;;;;;;957.05;882.97;;;8.20;92.50;;;;;;5101819;28;20056;-74
2023/03/14 08:03:07;;;;;;;1351.82;821.17;;;8.30;92.50;;;;;;5093210;28;20063;-74
2023/03/14 08:05:37;;;;;;;744.95;686.05;;;8.40;91.60;;;;;;5078558;28;20048;-74
2023/03/14 08:08:04;;;;;;;922.78;859.58;;;8.60;91.20;;;;;;5090868;28;20047;-74
2023/03/14 08:10:30;;;;;;;760.55;686.00;;;8.80;91.00;;;;;;5091968;28;20066;-74
2023/03/14 08:12:57;;;;;;;874.08;813.88;;;9.00;89.50;;;;;;5091594;28;20020;-74
2023/03/14 08:15:24;;;;;;;707.17;647.40;;;9.20;90.30;;;;;;5091288;28;20066;-74
2023/03/14 08:17:50;;;;;;;828.22;771.47;;;9.40;87.20;;;;;;5091291;28;20036;-74
2023/03/14 08:20:18;;;;;;;550.92;520.25;;;9.40;87.30;;;;;;5093340;28;20028;-73
2023/03/14 08:22:44;;;;;;;614.95;576.22;;;9.40;85.20;;;;;;5074428;28;20174;-73
2023/03/14 08:25:10;;;;;;;400.45;381.90;;;9.50;86.10;;;;;;5091612;28;20593;-74
2023/03/14 08:27:38;;;;;;;497.00;472.70;;;9.50;85.20;;;;;;5091426;28;20035;-74
2023/03/14 08:30:05;;;;;;;576.42;545.38;;;9.60;83.40;;;;;;5092696;28;20541;-73
2023/03/14 08:32:31;;;;;;;662.30;625.40;;;9.60;83.80;;;;;;5091128;28;20056;-74
2023/03/14 08:34:57;;;;;;;600.15;538.10;;;10.00;84.20;;;;;;5091492;28;20066;-73
2023/03/14 08:37:24;;;;;;;443.85;405.80;;;10.10;81.00;;;;;;5073375;28;20557;-73
2023/03/14 08:39:51;;;;;;;500.27;461.15;;;10.10;80.60;;;;;;5090989;28;20036;-74
2023/03/14 08:42:16;;;;;;;248.25;239.20;;;10.30;78.70;;;;;;5091371;28;20143;-74
2023/03/14 08:44:42;;;;;;;334.98;316.10;;;10.50;79.10;;;;;;5073365;28;20119;-74
2023/03/14 08:47:08;;;;;;;253.30;237.38;;;10.70;77.30;;;;;;5090179;28;20032;-74
2023/03/14 08:49:33;;;;;;;221.60;210.80;;;10.90;76.50;;;;;;5073188;28;20024;-74
2023/03/14 08:52:01;;;;;;;196.88;189.70;;;11.10;75.30;;;;;;5075023;28;20576;-74
2023/03/14 08:54:26;;;;;;;180.98;170.63;;;11.20;76.10;;;;;;5072141;28;20040;-74
2023/03/14 08:56:52;;;;;;;212.13;199.93;;;11.30;74.50;;;;;;5088436;28;20028;-74
2023/03/14 08:59:18;;;;;;;231.93;218.38;;;11.00;72.00;;;;;;5087846;28;20505;-74
2023/03/14 09:01:43;;;;;;;87.85;84.70;;;10.60;73.30;;;;;;5092860;28;20032;-74
2023/03/14 09:04:09;;;;;;;237.18;219.27;;;10.90;72.90;;;;;;5089899;28;20028;-74
2023/03/14 09:06:35;;;;;;;91.10;84.20;;;11.10;72.10;;;;;;5073948;28;20028;-74
2023/03/14 09:09:01;;;;;;;246.20;219.60;;;11.20;73.00;;;;;;5083157;28;20040;-74
2023/03/14 09:11:26;;;;;;;162.07;146.07;;;11.40;71.60;;;;;;5088163;28;20040;-75
2023/03/14 09:13:52;;;;;;;149.48;142.85;;;11.20;70.80;;;;;;5070064;28;20036;-75
2023/03/14 09:16:18;;;;;;;298.38;277.58;;;11.20;72.10;;;;;;5090041;28;20401;-74
2023/03/14 09:18:43;;;;;;;151.63;143.05;;;11.10;72.20;;;;;;5089125;28;20036;-74
2023/03/14 09:21:09;;;;;;;226.80;212.82;;;11.10;71.40;;;;;;5091190;28;20111;-74
2023/03/14 09:23:35;;;;;;;122.80;116.30;;;11.20;72.00;;;;;;5090906;28;20035;-74
2023/03/14 09:26:01;;;;;;;113.45;109.47;;;11.10;72.80;;;;;;5094324;28;20131;-74
2023/03/14 09:28:27;;;;;;;77.38;74.55;;;11.10;72.90;;;;;;5092384;28;20540;-75
2023/03/14 09:30:53;;;;;;;93.50;90.18;;;11.10;72.20;;;;;;5094162;28;20055;-74
2023/03/14 09:33:18;;;;;;;155.38;144.60;;;11.30;73.00;;;;;;5091483;28;20028;-75
2023/03/14 09:35:44;;;;;;;105.65;98.90;;;11.30;71.30;;;;;;5076750;28;20040;-74
2023/03/14 09:38:10;;;;;;;218.40;189.48;;;11.30;72.60;;;;;;5071701;28;20028;-75
2023/03/14 09:40:37;;;;;;;386.30;358.73;;;11.30;70.10;;;;;;5076775;28;20032;-75
2023/03/14 09:43:04;;;;;;;207.48;160.50;;;11.60;72.70;;;;;;5092379;28;20549;-75
2023/03/14 09:45:34;;;;;;;122.30;114.40;;;11.60;70.50;;;;;;5094620;28;20054;-76
2023/03/14 09:48:02;;;;;;;186.85;169.20;;;11.50;70.40;;;;;;5090086;28;20032;-73
2023/03/14 09:50:38;;;;;;;284.75;205.82;;;11.30;69.50;;;;;;5089110;28;20566;-73
2023/03/14 09:53:09;;;;;;;126.25;114.68;;;11.50;68.00;;;;;;5089451;28;20054;-73
2023/03/14 09:55:35;;;;;;;121.65;111.95;;;11.80;67.00;;;;;;5076085;28;20066;-73
2023/03/14 09:58:08;;;;;;;37.17;35.85;;;11.90;67.30;;;;;;5070159;28;20036;-73
2023/03/14 10:00:35;;;;;;;81.75;78.63;;;12.00;67.20;;;;;;5091382;28;21181;-73
2023/03/14 10:03:23;;;;;;;78.05;74.63;;;12.10;67.70;;;;;;5070488;28;20035;-73
2023/03/14 10:05:48;;;;;;;109.22;99.72;;;12.20;66.40;;;;;;5089539;28;20032;-73
2023/03/14 10:08:14;;;;;;;45.70;44.10;;;12.00;67.10;;;;;;5073037;28;20439;-74
2023/03/14 10:10:40;;;;;;;101.70;91.38;;;12.10;67.90;;;;;;5071261;28;20058;-74
2023/03/14 10:13:27;;;;;;;56.28;54.22;;;12.00;67.30;;;;;;5053876;28;20036;-75
2023/03/14 10:15:59;;;;;;;80.28;70.07;;;12.10;67.00;;;;;;5087761;28;20130;-74
2023/03/14 10:18:26;;;;;;;224.30;205.32;;;11.90;67.20;;;;;;5088391;28;20020;-76
2023/03/14 10:21:26;;;;;;;70.10;66.65;;;11.80;66.40;;;;;;5073849;28;20059;-73
2023/03/14 10:23:52;;;;;;;37.33;36.03;;;11.70;66.90;;;;;;5058024;28;20100;-74
2023/03/14 10:26:27;;;;;;;53.33;49.97;;;11.80;68.00;;;;;;5098419;27;20039;-74
2023/03/14 10:29:01;;;;;;;367.15;240.13;;;11.70;67.30;;;;;;5086088;28;20027;-75
2023/03/14 10:31:26;;;;;;;160.98;128.38;;;11.50;66.70;;;;;;5109543;28;20051;-76
2023/03/14 10:34:05;;;;;;;98.47;85.28;;;11.50;67.00;;;;;;5083304;28;20375;-74
2023/03/14 10:36:34;;;;;;;38.35;36.85;;;11.40;66.60;;;;;;5085650;28;20023;-75
2023/03/14 10:39:23;;;;;;;45.13;43.25;;;11.70;66.60;;;;;;5093623;28;20031;-76
2023/03/14 10:41:53;;;;;;;102.53;93.70;;;11.40;65.80;;;;;;5108988;28;20020;-75
2023/03/14 10:44:23;;;;;;;106.18;97.38;;;11.40;66.90;;;;;;5107226;28;20035;-74
2023/03/14 10:47:03;;;;;;;372.73;248.45;;;11.60;67.00;;;;;;5108928;28;20102;-75
2023/03/14 10:49:30;;;;;;;;;;;11.70;66.00;;;;;;5109165;28;20035;-75
2023/03/14 10:52:02;;;;;;;365.73;190.85;;;12.10;66.20;;;;;;5109338;28;19939;-76
2023/03/14 10:54:30;;;;;;;40.72;39.25;;;12.00;64.90;;;;;;5092398;28;20110;-75
2023/03/14 10:56:57;;;;;;;65.40;62.42;;;12.60;66.00;;;;;;5092647;28;20493;-75
2023/03/14 10:59:23;;;;;;;67.28;64.28;;;12.80;64.90;;;;;;5092075;28;20051;-76
2023/03/14 11:01:55;;;;;;;82.72;78.50;;;13.20;64.70;;;;;;5107843;28;20031;-72
2023/03/14 11:04:43;;;;;;;22.92;21.70;;;13.30;64.10;;;;;;5107354;28;20039;-75
2023/03/14 11:07:20;;;;;;;114.78;91.60;;;12.80;62.90;;;;;;5107054;28;20095;-74
2023/03/14 11:09:53;;;;;;;55.42;51.38;;;12.20;64.00;;;;;;5104233;28;20392;-74
2023/03/14 11:12:34;;;;;;;51.65;49.47;;;12.00;65.90;;;;;;5092748;28;20059;-74
2023/03/14 11:15:11;;;;;;;;;;;11.90;66.10;;;;;;5107791;28;20035;-75
2023/03/14 11:17:45;;;;;;;63.92;60.03;;;12.00;65.60;;;;;;5100274;28;19933;-78
2023/03/14 11:20:37;;;;;;;177.25;161.68;;;11.90;65.80;;;;;;5106335;28;20038;-75
2023/03/14 11:23:17;;;;;;;254.07;175.05;;;11.90;66.00;;;;;;5076694;28;20035;-75
2023/03/14 11:26:06;;;;;;;76.70;73.25;;;12.20;65.50;;;;;;5094563;28;20044;-76
2023/03/14 11:28:38;;;;;;;244.85;211.77;;;12.10;64.40;;;;;;5083980;28;20032;-76
2023/03/14 11:31:15;;;;;;;74.43;69.90;;;12.10;65.20;;;;;;5066159;28;20028;-75
2023/03/14 11:34:03;;;;;;;126.60;119.45;;;11.90;64.20;;;;;;5083810;28;20020;-75
2023/03/14 11:36:41;;;;;;;120.75;86.03;;;11.90;66.00;;;;;;5085607;28;20091;-75
2023/03/14 11:39:18;;;;;;;474.65;317.05;;;12.00;66.00;;;;;;5070755;28;20033;-75
2023/03/14 11:41:46;;;;;;;133.02;124.32;;;11.50;67.30;;;;;;5090119;28;20030;-75
2023/03/14 11:44:22;;;;;;;114.03;106.72;;;11.60;66.20;;;;;;5068214;28;20032;-76
2023/03/14 11:46:57;;;;;;;491.85;226.70;;;11.80;67.20;;;;;;5073466;28;20038;-75
2023/03/14 11:49:38;;;;;;;287.10;207.10;;;11.40;66.10;;;;;;5090807;28;20132;-74
2023/03/14 11:52:25;;;;;;;266.30;182.50;;;11.20;68.60;;;;;;5091303;28;20038;-74
2023/03/14 11:55:17;;;;;;;241.40;224.93;;;11.00;68.80;;;;;;5089562;28;20090;-74
2023/03/14 11:57:45;;;;;;;403.85;313.80;;;11.00;73.40;;;;;;5068404;28;20036;-76
2023/03/14 12:00:14;;;;;;;544.55;355.10;;;10.90;72.40;;;;;;5073047;28;20032;-73
2023/03/14 12:03:05;;;;;;;463.60;355.77;;;10.70;72.80;;;;;;5073102;28;20059;-72
2023/03/14 12:06:10;;;;;;;426.08;396.48;;;9.90;73.90;;;;;;5090486;28;20158;-73
2023/03/14 12:08:48;;;;;;;344.13;326.30;;;9.90;76.40;;;;;;5081107;28;20034;-74
2023/03/14 12:11:38;;;;;;;479.13;439.25;;;9.70;77.50;;;;;;5089091;28;20073;-78
2023/03/14 12:14:29;;;;;;;1526.87;845.70;;;9.50;80.40;;;;;;5075973;28;20393;-74
2023/03/14 12:16:58;;;;;;;601.72;550.20;;;9.30;83.30;;;;;;5073307;28;20086;-73
2023/03/14 12:19:26;;;;;;;729.67;666.63;;;9.10;84.50;;;;;;5071565;28;20480;-72